Time;durP1;ratioP1;P1;durP2;ratioP2;P2;SDS_P1;SDS_P2;PMS_P1;PMS_P2;Temp;Humidity;BMP_temperature;BMP_pressure;BME280_temperature;BME280_humidity;BME280_pressure;Samples;Min_cycle;Max_cycle;Signal;HPM_P1;HPM_P2
2022/01/02 00:00:07;;;;;;;8.50;4.35;;;;;;;11.47;100.00;101224.28;6146535;23;20084;-86
2022/01/02 00:02:34;;;;;;;7.60;4.80;;;;;;;11.45;100.00;101220.91;6145781;23;20021;-86
2022/01/02 00:05:05;;;;;;;8.55;4.65;;;;;;;11.43;100.00;101213.03;6146494;23;20021;-86
2022/01/02 00:07:43;;;;;;;8.07;4.28;;;;;;;11.43;100.00;101213.03;6146729;23;20048;-86
2022/01/02 00:10:10;;;;;;;9.00;4.88;;;;;;;11.44;100.00;101192.34;6167377;23;20027;-87
2022/01/02 00:12:38;;;;;;;6.88;4.45;;;;;;;11.43;100.00;101204.13;6183824;23;20070;-85
2022/01/02 00:15:06;;;;;;;7.28;4.28;;;;;;;11.44;100.00;101241.56;6208832;23;20400;-86
2022/01/02 00:17:32;;;;;;;8.45;4.70;;;;;;;11.42;100.00;101215.84;6210232;23;20050;-86
2022/01/02 00:20:08;;;;;;;8.00;4.75;;;;;;;11.44;100.00;101189.66;6158876;23;20363;-86
2022/01/02 00:22:36;;;;;;;8.20;4.75;;;;;;;11.45;100.00;101191.34;6183316;23;20040;-86
2022/01/02 00:25:07;;;;;;;8.63;4.80;;;;;;;11.46;100.00;101191.19;6159132;23;20890;-86
2022/01/02 00:27:35;;;;;;;8.30;4.72;;;;;;;11.45;100.00;101189.53;6208751;23;20024;-86
2022/01/02 00:30:06;;;;;;;6.78;4.50;;;;;;;11.46;100.00;101177.75;6182484;23;20088;-87
2022/01/02 00:32:37;;;;;;;7.05;4.60;;;;;;;11.42;100.00;101170.16;6159372;23;20450;-86
2022/01/02 00:35:03;;;;;;;10.95;4.57;;;;;;;11.41;100.00;101173.88;6158105;23;20358;-87
2022/01/02 00:37:29;;;;;;;8.93;4.78;;;;;;;11.39;100.00;101171.31;6183676;23;20469;-87
2022/01/02 00:39:54;;;;;;;5.50;3.90;;;;;;;11.37;100.00;101175.19;6209791;23;20013;-86
2022/01/02 00:42:25;;;;;;;7.22;3.75;;;;;;;11.39;100.00;101183.94;6209078;23;20012;-86
2022/01/02 00:44:58;;;;;;;6.32;3.97;;;;;;;11.38;100.00;101177.72;6210022;23;20027;-86
2022/01/02 00:47:49;;;;;;;6.72;3.88;;;;;;;11.39;100.00;101176.69;6182292;23;20009;-87
2022/01/02 00:50:20;;;;;;;7.65;4.47;;;;;;;11.42;100.00;101194.34;6207818;23;20040;-88
2022/01/02 00:52:48;;;;;;;8.20;4.63;;;;;;;11.41;100.00;101201.56;6184122;23;20347;-87
2022/01/02 00:55:19;;;;;;;8.45;4.20;;;;;;;11.42;100.00;101205.09;6183139;23;20083;-87
2022/01/02 00:57:53;;;;;;;7.72;4.35;;;;;;;11.41;100.00;101216.88;6186611;23;20013;-86
2022/01/02 01:00:19;;;;;;;9.23;4.35;;;;;;;11.40;100.00;101228.63;6207707;23;20020;-86
2022/01/02 01:02:45;;;;;;;7.35;3.70;;;;;;;11.37;100.00;101208.28;6185101;23;20013;-86
2022/01/02 01:05:35;;;;;;;10.10;4.40;;;;;;;11.34;100.00;101202.41;6184527;23;20020;-85
2022/01/02 01:08:03;;;;;;;7.78;4.00;;;;;;;11.30;100.00;101215.28;6184776;23;20024;-87
2022/01/02 01:10:38;;;;;;;9.20;4.68;;;;;;;11.29;100.00;101227.88;6182712;23;20075;-87
2022/01/02 01:13:05;;;;;;;8.00;4.53;;;;;;;11.29;100.00;101232.41;6185209;23;20019;-86
2022/01/02 01:15:33;;;;;;;5.45;3.55;;;;;;;11.23;100.00;101233.03;6182204;23;20020;-86
2022/01/02 01:18:00;;;;;;;7.43;3.78;;;;;;;11.20;100.00;101236.88;6160500;23;20150;-86
2022/01/02 01:20:28;;;;;;;7.45;4.43;;;;;;;11.18;100.00;101243.41;6183788;23;20027;-85
2022/01/02 01:22:54;;;;;;;7.07;3.90;;;;;;;11.20;100.00;101244.09;6211829;23;20091;-85
2022/01/02 01:25:21;;;;;;;7.75;4.30;;;;;;;11.17;100.00;101234.53;6211055;23;20448;-85
2022/01/02 01:27:48;;;;;;;5.97;3.80;;;;;;;11.16;100.00;101226.59;6185438;23;20015;-86
2022/01/02 01:30:18;;;;;;;6.07;3.60;;;;;;;11.19;100.00;101234.34;6182886;23;20075;-85
2022/01/02 01:32:44;;;;;;;6.80;3.88;;;;;;;11.16;100.00;101229.28;6209889;23;20029;-86
2022/01/02 01:35:11;;;;;;;7.72;4.15;;;;;;;11.17;100.00;101231.84;6210909;23;20567;-86
2022/01/02 01:37:37;;;;;;;6.72;4.25;;;;;;;11.14;100.00;101223.25;6209831;23;20083;-86
2022/01/02 01:40:05;;;;;;;7.30;4.88;;;;;;;11.13;100.00;101216.19;6208746;23;20043;-86
2022/01/02 01:42:38;;;;;;;7.55;4.57;;;;;;;11.06;100.00;101210.59;6184877;23;20074;-86
2022/01/02 01:47:33;;;;;;;7.03;3.80;;;;;;;10.98;100.00;101206.00;6185194;23;20016;-86
2022/01/02 01:49:58;;;;;;;7.93;4.15;;;;;;;10.95;100.00;101202.81;6135501;23;20078;-87
2022/01/02 01:52:24;;;;;;;9.18;4.68;;;;;;;10.91;100.00;101199.59;6208006;23;20012;-86
2022/01/02 01:54:50;;;;;;;8.73;5.72;;;;;;;10.84;100.00;101201.19;6184529;23;20028;-87
2022/01/02 01:57:15;;;;;;;9.13;4.50;;;;;;;10.80;100.00;101199.84;6209045;23;20047;-86
2022/01/02 01:59:41;;;;;;;9.80;4.18;;;;;;;10.77;100.00;101202.84;6209017;23;20067;-86
2022/01/02 02:02:07;;;;;;;10.10;4.90;;;;;;;10.71;100.00;101211.50;6134078;23;20017;-86
2022/01/02 02:04:33;;;;;;;9.07;5.03;;;;;;;10.69;100.00;101202.75;6160212;23;20020;-87
2022/01/02 02:06:59;;;;;;;9.25;4.85;;;;;;;10.64;100.00;101205.91;6135236;23;20009;-86
2022/01/02 02:09:28;;;;;;;10.57;4.97;;;;;;;10.61;100.00;101179.38;6183830;23;20324;-86
2022/01/02 02:11:59;;;;;;;;;;;;;;;10.57;100.00;101172.66;6185160;23;20110;-87
2022/01/02 02:14:25;;;;;;;9.32;5.10;;;;;;;10.46;100.00;101165.66;6208032;23;19982;-86
2022/01/02 02:16:51;;;;;;;8.02;5.03;;;;;;;10.45;100.00;101158.63;6209775;23;20082;-86
2022/01/02 02:19:16;;;;;;;8.80;4.45;;;;;;;10.44;100.00;101156.91;6182832;23;20387;-86
2022/01/02 02:21:42;;;;;;;9.10;5.45;;;;;;;10.44;100.00;101145.34;6184515;23;20040;-86
2022/01/02 02:24:08;;;;;;;8.63;5.35;;;;;;;10.40;100.00;101134.09;6183442;23;20455;-86
2022/01/02 02:26:34;;;;;;;10.32;5.50;;;;;;;10.39;100.00;101140.47;6184658;23;20037;-87
2022/01/02 02:29:02;;;;;;;8.75;5.90;;;;;;;10.37;100.00;101145.13;6183706;23;20025;-86
2022/01/02 02:31:27;;;;;;;9.52;5.40;;;;;;;10.35;100.00;101136.38;6158152;23;20584;-86
2022/01/02 02:33:52;;;;;;;12.65;5.68;;;;;;;10.32;100.00;101150.13;6208842;23;20249;-87
2022/01/02 02:36:18;;;;;;;10.27;5.00;;;;;;;10.33;100.00;101149.13;6209550;23;20020;-87
2022/01/02 02:38:44;;;;;;;8.35;5.20;;;;;;;10.32;100.00;101156.31;6184276;23;20021;-86
2022/01/02 02:41:09;;;;;;;9.00;5.35;;;;;;;10.33;100.00;101143.78;6158189;23;20451;-86
2022/01/02 02:43:50;;;;;;;10.07;5.70;;;;;;;10.32;100.00;101128.66;6134921;23;20095;-87
2022/01/02 02:54:03;;;;;;;9.18;5.20;;;;;;;10.32;100.00;101094.63;6209195;23;20020;-86
2022/01/02 02:56:42;;;;;;;8.98;5.10;;;;;;;10.34;100.00;101091.78;6134565;23;20019;-86
2022/01/02 02:59:09;;;;;;;16.25;5.80;;;;;;;10.38;100.00;101077.06;6139285;23;20032;-86
2022/01/02 03:01:34;;;;;;;10.48;5.03;;;;;;;10.42;100.00;101081.13;6183366;23;20019;-86
2022/01/02 03:04:00;;;;;;;10.55;4.93;;;;;;;10.44;100.00;101068.38;6184272;23;20364;-86
2022/01/02 03:06:25;;;;;;;10.95;4.90;;;;;;;10.50;100.00;101075.84;6183280;23;20036;-86
2022/01/02 03:08:51;;;;;;;9.93;4.68;;;;;;;10.53;100.00;101074.66;6209086;23;20016;-87
2022/01/02 03:11:20;;;;;;;9.85;5.82;;;;;;;10.57;100.00;101065.31;6208022;23;20024;-87
2022/01/02 03:13:48;;;;;;;11.18;4.80;;;;;;;10.60;100.00;101047.03;6159895;23;20024;-87
2022/01/02 03:16:14;;;;;;;9.63;4.75;;;;;;;10.60;100.00;101068.50;6205992;23;20024;-87
2022/01/02 03:18:40;;;;;;;12.00;5.68;;;;;;;10.63;100.00;101042.34;6210576;23;20021;-87
2022/01/02 03:21:05;;;;;;;8.73;4.97;;;;;;;10.65;100.00;101051.09;6207449;23;20021;-85
2022/01/02 03:23:31;;;;;;;10.00;4.45;;;;;;;10.62;100.00;101038.84;6183488;23;20456;-87
2022/01/02 03:25:57;;;;;;;10.93;5.55;;;;;;;10.63;100.00;101039.69;6183704;23;20027;-87
2022/01/02 03:28:23;;;;;;;10.45;5.07;;;;;;;10.61;100.00;101045.19;6208797;23;20020;-86
2022/01/02 03:30:48;;;;;;;10.50;5.00;;;;;;;10.59;100.00;101028.44;6181390;23;20016;-86
2022/01/02 03:33:14;;;;;;;10.57;5.60;;;;;;;10.57;100.00;101017.00;6209360;23;20432;-86
2022/01/02 03:35:40;;;;;;;10.27;5.40;;;;;;;10.59;100.00;101029.25;6182483;23;20478;-86
2022/01/02 03:38:06;;;;;;;9.90;4.80;;;;;;;10.58;100.00;101019.50;6181555;23;20096;-87
2022/01/02 03:40:31;;;;;;;12.63;5.20;;;;;;;10.59;100.00;101010.47;6209253;23;20009;-86
2022/01/02 03:42:56;;;;;;;9.35;5.35;;;;;;;10.63;100.00;101010.16;6183666;23;20027;-86
2022/01/02 03:45:22;;;;;;;11.75;5.03;;;;;;;10.63;100.00;100994.88;6207269;23;20036;-87
2022/01/02 03:47:48;;;;;;;10.23;4.90;;;;;;;10.63;100.00;101002.09;6158615;23;20375;-85
2022/01/02 03:50:14;;;;;;;12.27;4.88;;;;;;;10.64;100.00;101004.59;6156761;23;20020;-86
2022/01/02 03:52:39;;;;;;;10.75;4.70;;;;;;;10.64;100.00;101001.09;6134051;23;20074;-87
2022/01/02 03:55:06;;;;;;;15.60;5.25;;;;;;;10.65;100.00;100998.25;6182329;23;20371;-86
2022/01/02 03:57:31;;;;;;;11.52;4.57;;;;;;;10.67;100.00;100987.34;6183719;23;20021;-86
2022/01/02 03:59:57;;;;;;;13.63;5.38;;;;;;;10.70;100.00;100995.91;6158147;23;20021;-86
2022/01/02 04:02:22;;;;;;;11.23;4.95;;;;;;;10.70;100.00;100987.88;6157672;23;20016;-87
2022/01/02 04:04:47;;;;;;;12.15;4.60;;;;;;;10.72;100.00;100993.09;6183906;23;20088;-86
2022/01/02 04:07:13;;;;;;;8.15;4.70;;;;;;;10.71;100.00;100996.78;6133627;23;20028;-85
2022/01/02 04:09:38;;;;;;;12.32;4.85;;;;;;;10.72;100.00;100991.25;6208829;23;20012;-87
2022/01/02 04:12:04;;;;;;;10.18;5.38;;;;;;;10.74;100.00;100988.41;6157928;23;20021;-86
2022/01/02 04:14:29;;;;;;;13.38;5.32;;;;;;;10.73;100.00;100992.94;6182472;23;20028;-86
2022/01/02 04:16:55;;;;;;;10.18;4.45;;;;;;;10.74;100.00;100981.19;6183068;23;20016;-86
2022/01/02 04:19:20;;;;;;;14.05;4.55;;;;;;;10.74;100.00;100996.47;6182920;23;20017;-86
2022/01/02 04:21:46;;;;;;;12.15;5.63;;;;;;;10.73;100.00;100990.25;6158495;23;20012;-87
2022/01/02 04:24:11;;;;;;;14.15;6.30;;;;;;;10.72;100.00;100987.72;6133260;23;20016;-86
2022/01/02 04:26:36;;;;;;;12.77;5.15;;;;;;;10.72;100.00;100987.72;6135152;23;20016;-86
2022/01/02 04:29:03;;;;;;;14.40;4.95;;;;;;;10.73;100.00;100989.38;6185299;23;20095;-86
2022/01/02 04:31:28;;;;;;;11.13;4.82;;;;;;;10.74;100.00;100997.28;6210647;23;20023;-86
2022/01/02 04:33:54;;;;;;;13.27;4.82;;;;;;;10.76;100.00;100989.06;6185544;23;20409;-86
2022/01/02 04:36:19;;;;;;;9.82;5.00;;;;;;;10.79;100.00;100972.66;6135442;23;20028;-85
2022/01/02 04:38:45;;;;;;;11.98;5.47;;;;;;;10.80;100.00;100980.53;6160450;23;20017;-86
2022/01/02 04:41:11;;;;;;;13.70;4.97;;;;;;;10.79;100.00;100973.50;6183364;23;20019;-87
2022/01/02 04:43:36;;;;;;;12.02;4.72;;;;;;;10.81;100.00;100976.00;6160450;23;20020;-86
2022/01/02 04:46:02;;;;;;;11.02;4.93;;;;;;;10.81;100.00;100960.75;6184982;23;20020;-86
2022/01/02 04:48:27;;;;;;;12.32;5.18;;;;;;;10.82;100.00;100950.88;6209537;23;20048;-85
2022/01/02 04:50:53;;;;;;;14.15;5.18;;;;;;;10.81;100.00;100950.00;6210080;23;20359;-86
2022/01/02 04:53:22;;;;;;;13.57;5.57;;;;;;;10.82;100.00;100951.69;6134948;23;20062;-86
2022/01/02 04:55:48;;;;;;;14.23;5.45;;;;;;;10.83;100.00;100942.63;6160798;23;20478;-87
2022/01/02 04:58:13;;;;;;;12.75;5.43;;;;;;;10.86;100.00;100946.84;6184423;23;20020;-87
2022/01/02 05:00:39;;;;;;;12.57;5.32;;;;;;;10.88;100.00;100941.31;6209346;23;20028;-87
2022/01/02 05:03:04;;;;;;;11.95;4.95;;;;;;;10.88;100.00;100950.22;6158532;23;20107;-86
2022/01/02 05:05:30;;;;;;;8.60;4.32;;;;;;;10.91;100.00;100957.09;6160050;23;20321;-86
2022/01/02 05:07:56;;;;;;;16.35;5.30;;;;;;;10.95;100.00;100953.91;6184585;23;20013;-87
2022/01/02 05:10:21;;;;;;;13.98;5.22;;;;;;;10.96;100.00;100947.56;6183134;23;20047;-86
2022/01/02 05:12:46;;;;;;;9.93;4.20;;;;;;;10.98;100.00;100953.59;6211576;23;20043;-86
2022/01/02 05:15:12;;;;;;;9.38;4.28;;;;;;;10.97;100.00;100943.88;6158729;23;20064;-86
2022/01/02 05:17:37;;;;;;;11.70;4.82;;;;;;;10.98;100.00;100953.59;6210311;23;20020;-86
2022/01/02 05:20:04;;;;;;;15.98;4.50;;;;;;;10.96;100.00;100958.31;6184797;23;20021;-87
2022/01/02 05:22:30;;;;;;;9.80;4.93;;;;;;;10.92;100.00;100954.25;6184386;23;20021;-87
2022/01/02 05:24:55;;;;;;;12.35;4.50;;;;;;;10.92;100.00;100954.25;6211333;23;20351;-86
2022/01/02 05:27:20;;;;;;;14.05;4.70;;;;;;;10.90;100.00;100942.81;6184602;23;20017;-87
2022/01/02 05:29:46;;;;;;;12.50;4.38;;;;;;;10.90;100.00;100948.19;6159993;23;20355;-86
2022/01/02 05:32:11;;;;;;;13.30;4.70;;;;;;;10.92;100.00;100943.50;6158756;23;20103;-86
2022/01/02 05:34:36;;;;;;;12.75;5.20;;;;;;;10.93;100.00;100949.72;6185375;23;20359;-87
2022/01/02 05:37:02;;;;;;;11.50;4.90;;;;;;;10.92;100.00;100954.25;6160282;23;20016;-86
2022/01/02 05:39:27;;;;;;;11.38;5.47;;;;;;;10.90;100.00;100956.25;6183284;23;20020;-86
2022/01/02 05:41:53;;;;;;;13.52;4.50;;;;;;;10.87;100.00;100943.16;6160392;23;20013;-87
2022/01/02 05:44:19;;;;;;;14.05;5.78;;;;;;;10.83;100.00;100941.81;6209104;23;20394;-86
2022/01/02 05:46:46;;;;;;;12.32;5.53;;;;;;;10.80;100.00;100939.44;6211488;23;20086;-86
2022/01/02 05:49:12;;;;;;;12.38;5.30;;;;;;;10.77;100.00;100940.59;6184784;23;20009;-86
2022/01/02 05:51:38;;;;;;;12.52;4.90;;;;;;;10.76;100.00;100940.75;6184731;23;20084;-86
2022/01/02 05:54:03;;;;;;;10.35;5.07;;;;;;;10.75;100.00;100934.53;6184652;23;20055;-86
2022/01/02 05:56:30;;;;;;;14.98;5.45;;;;;;;10.74;100.00;100929.34;6184145;23;20550;-86
2022/01/02 05:58:55;;;;;;;12.82;4.97;;;;;;;10.73;100.00;100914.22;6184621;23;20043;-86
2022/01/02 06:01:21;;;;;;;14.00;5.43;;;;;;;10.70;100.00;100907.34;6208282;23;20347;-87
2022/01/02 06:03:46;;;;;;;12.25;5.10;;;;;;;10.70;100.00;100887.72;6211254;23;20017;-88
2022/01/02 06:06:12;;;;;;;13.43;6.00;;;;;;;10.67;100.00;100874.63;6183915;23;20023;-87
2022/01/02 06:08:37;;;;;;;13.60;5.57;;;;;;;10.66;100.00;100875.66;6211492;23;20020;-86
2022/01/02 06:11:03;;;;;;;12.05;5.80;;;;;;;10.65;100.00;100868.59;6184020;23;20044;-87
2022/01/02 06:13:28;;;;;;;12.20;5.80;;;;;;;10.64;100.00;100866.91;6184086;23;20013;-87
2022/01/02 06:15:54;;;;;;;11.77;5.03;;;;;;;10.60;100.00;100872.59;6211016;23;20040;-87
2022/01/02 06:18:19;;;;;;;16.55;6.13;;;;;;;10.61;100.00;100858.16;6159277;23;20435;-87
2022/01/02 06:20:45;;;;;;;16.75;6.82;;;;;;;10.57;100.00;100859.50;6184217;23;20355;-86
2022/01/02 06:23:10;;;;;;;12.13;6.03;;;;;;;10.57;100.00;100856.81;6184274;23;20024;-86
2022/01/02 06:25:35;;;;;;;14.02;5.32;;;;;;;10.54;100.00;100843.75;6158846;23;20399;-86
2022/01/02 06:28:01;;;;;;;17.75;6.65;;;;;;;10.54;100.00;100830.31;6185324;23;20032;-87
2022/01/02 06:30:27;;;;;;;14.30;6.97;;;;;;;10.54;100.00;100846.41;6183018;23;20024;-86
2022/01/02 06:32:55;;;;;;;11.63;4.95;;;;;;;10.60;100.00;100843.09;6159727;23;20024;-86
2022/01/02 06:35:28;;;;;;;19.42;6.32;;;;;;;10.63;100.00;100849.97;6159629;23;20069;-86
2022/01/02 06:37:54;;;;;;;10.98;5.32;;;;;;;10.61;100.00;100839.38;6209994;23;20020;-86
2022/01/02 06:40:21;;;;;;;12.63;5.50;;;;;;;10.59;100.00;100822.63;6183674;23;20028;-87
2022/01/02 06:42:47;;;;;;;11.10;5.50;;;;;;;10.57;100.00;100827.31;6185122;23;20082;-86
2022/01/02 06:45:12;;;;;;;16.15;6.28;;;;;;;10.57;100.00;100810.38;6209245;23;20063;-88
2022/01/02 06:47:38;;;;;;;13.73;5.65;;;;;;;10.53;100.00;100804.50;6211156;23;20036;-88
2022/01/02 06:50:04;;;;;;;13.95;6.88;;;;;;;10.54;100.00;100800.81;6134320;23;20021;-87
2022/01/02 06:52:29;;;;;;;13.27;5.57;;;;;;;10.52;100.00;100800.13;6183244;23;20023;-87
2022/01/02 06:54:55;;;;;;;16.10;7.28;;;;;;;10.50;100.00;100791.41;6185056;23;20021;-86
2022/01/02 06:57:21;;;;;;;15.60;6.50;;;;;;;10.48;100.00;100777.31;6183786;23;20023;-86
2022/01/02 06:59:47;;;;;;;16.00;6.68;;;;;;;10.47;100.00;100770.28;6210058;23;20013;-86
2022/01/02 07:02:12;;;;;;;15.05;7.18;;;;;;;10.46;100.00;100752.50;6183198;23;20012;-87
2022/01/02 07:04:38;;;;;;;13.35;7.13;;;;;;;10.46;100.00;100733.72;6183604;23;20225;-87
2022/01/02 07:07:03;;;;;;;16.85;7.60;;;;;;;10.45;100.00;100748.13;6210644;23;20474;-86
2022/01/02 07:09:31;;;;;;;14.25;6.45;;;;;;;10.43;100.00;100739.41;6210120;23;20099;-85
2022/01/02 07:11:57;;;;;;;19.25;7.60;;;;;;;10.41;100.00;100728.00;6159799;23;20088;-86
2022/01/02 07:14:26;;;;;;;15.32;7.05;;;;;;;10.38;100.00;100707.69;6183340;23;20051;-86
2022/01/02 07:16:52;;;;;;;15.93;7.25;;;;;;;10.39;100.00;100695.16;6160310;23;20017;-85
2022/01/02 07:19:17;;;;;;;18.17;8.48;;;;;;;10.39;100.00;100684.41;6209868;23;20107;-85
2022/01/02 07:21:43;;;;;;;15.32;7.47;;;;;;;10.39;100.00;100682.56;6209777;23;20017;-86
2022/01/02 07:24:08;;;;;;;15.13;7.68;;;;;;;10.37;100.00;100663.13;6160255;23;20089;-86
2022/01/02 07:26:33;;;;;;;18.10;8.23;;;;;;;10.39;100.00;100665.66;6184328;23;20074;-86
2022/01/02 07:28:59;;;;;;;18.15;9.10;;;;;;;10.38;100.00;100666.63;6135149;23;20012;-86
2022/01/02 07:31:24;;;;;;;20.60;9.35;;;;;;;10.38;100.00;100654.03;6158012;23;20016;-86
2022/01/02 07:33:49;;;;;;;17.70;8.85;;;;;;;10.38;100.00;100637.94;6184621;23;20390;-86
2022/01/02 07:36:15;;;;;;;15.40;6.72;;;;;;;10.39;100.00;100641.50;6159943;23;20017;-87
2022/01/02 07:38:40;;;;;;;16.98;7.47;;;;;;;10.41;100.00;100623.38;6159292;23;20372;-86
2022/01/02 07:41:05;;;;;;;18.20;7.85;;;;;;;10.44;100.00;100619.53;6134996;23;20016;-86
2022/01/02 07:43:31;;;;;;;17.02;8.43;;;;;;;10.47;100.00;100611.13;6158866;23;20448;-87
2022/01/02 07:45:56;;;;;;;14.60;7.53;;;;;;;10.48;100.00;100612.84;6160558;23;20028;-87
2022/01/02 07:48:21;;;;;;;15.40;8.32;;;;;;;10.49;100.00;100609.13;6208850;23;20020;-86
2022/01/02 07:50:47;;;;;;;12.73;7.22;;;;;;;10.50;100.00;100600.94;6159773;23;20027;-87
2022/01/02 07:53:12;;;;;;;12.38;7.53;;;;;;;10.53;100.00;100592.53;6135209;23;20032;-87
2022/01/02 07:55:38;;;;;;;15.45;6.80;;;;;;;10.56;100.00;100592.19;6209117;23;20096;-87
2022/01/02 07:58:03;;;;;;;13.40;7.25;;;;;;;10.58;100.00;100595.53;6205791;23;20039;-86
2022/01/02 08:00:29;;;;;;;14.38;7.13;;;;;;;10.61;100.00;100592.50;6205450;23;20393;-87
2022/01/02 08:02:54;;;;;;;13.45;6.72;;;;;;;10.65;100.00;100576.09;6159748;23;20013;-87
2022/01/02 08:05:20;;;;;;;14.57;6.68;;;;;;;10.67;100.00;100579.44;6182215;23;20025;-87
2022/01/02 08:07:45;;;;;;;13.73;6.45;;;;;;;10.69;100.00;100580.09;6209842;23;20351;-88
2022/01/02 08:10:11;;;;;;;12.20;7.00;;;;;;;10.72;100.00;100585.13;6184426;23;20017;-87
2022/01/02 08:12:36;;;;;;;13.45;6.97;;;;;;;10.71;100.00;100573.56;6209123;23;20398;-87
2022/01/02 08:15:02;;;;;;;15.82;7.22;;;;;;;10.73;100.00;100566.19;6160313;23;20019;-86
2022/01/02 08:17:27;;;;;;;17.02;7.03;;;;;;;10.75;100.00;100556.09;6210099;23;20032;-86
2022/01/02 08:19:54;;;;;;;16.45;6.97;;;;;;;10.75;100.00;100552.56;6184533;23;20332;-89
2022/01/02 08:22:20;;;;;;;13.48;5.82;;;;;;;10.78;100.00;100562.97;6183535;23;20025;-88
2022/01/02 08:24:45;;;;;;;14.13;6.28;;;;;;;10.80;100.00;100560.97;6207916;23;20021;-87
2022/01/02 08:27:11;;;;;;;11.07;6.05;;;;;;;10.80;100.00;100550.22;6183231;23;20027;-87
2022/01/02 08:29:36;;;;;;;12.10;6.25;;;;;;;10.82;100.00;100542.84;6182321;23;20432;-87
2022/01/02 08:32:01;;;;;;;10.20;5.78;;;;;;;10.79;100.00;100559.28;6181445;23;20017;-87
2022/01/02 08:34:27;;;;;;;13.93;5.90;;;;;;;10.77;100.00;100550.56;6134829;23;20127;-88
2022/01/02 08:36:52;;;;;;;14.45;6.03;;;;;;;10.78;100.00;100557.59;6202993;23;20154;-88
2022/01/02 08:39:17;;;;;;;12.32;6.03;;;;;;;10.80;100.00;100552.91;6151727;23;20103;-88
2022/01/02 08:41:44;;;;;;;11.15;5.68;;;;;;;10.83;100.00;100584.78;6152624;23;20028;-88
2022/01/02 08:44:10;;;;;;;14.52;6.70;;;;;;;10.86;100.00;100587.13;6156339;23;20402;-87
2022/01/02 08:46:36;;;;;;;15.40;6.32;;;;;;;10.84;100.00;100611.44;6153696;23;20463;-87
2022/01/02 08:49:01;;;;;;;14.55;6.10;;;;;;;10.90;100.00;100641.28;6154261;23;20012;-87
2022/01/02 08:51:29;;;;;;;13.40;5.60;;;;;;;10.91;100.00;100633.09;6204948;23;20066;-88
2022/01/02 08:53:55;;;;;;;12.70;5.55;;;;;;;10.89;100.00;100643.16;6180178;23;20659;-87
2022/01/02 08:56:20;;;;;;;12.45;5.72;;;;;;;10.88;100.00;100646.03;6180146;23;20012;-87
2022/01/02 08:58:46;;;;;;;10.15;5.40;;;;;;;10.85;100.00;100641.81;6206947;23;20020;-88
2022/01/02 09:01:11;;;;;;;12.60;5.35;;;;;;;10.83;100.00;100635.78;6154197;23;20360;-87
2022/01/02 09:03:37;;;;;;;12.82;5.63;;;;;;;10.81;100.00;100625.19;6153329;23;20114;-87
2022/01/02 09:06:04;;;;;;;13.27;5.65;;;;;;;10.84;100.00;100624.84;6178902;23;20017;-87
2022/01/02 09:08:36;;;;;;;13.88;5.63;;;;;;;10.88;100.00;100611.13;6133160;23;20018;-88
2022/01/02 09:11:02;;;;;;;8.68;5.00;;;;;;;10.94;100.00;100608.59;6204962;23;20702;-88
2022/01/02 09:13:28;;;;;;;11.10;5.85;;;;;;;10.97;100.00;100605.56;6193952;23;20040;-87
2022/01/02 09:16:03;;;;;;;13.40;4.65;;;;;;;11.03;100.00;100607.53;6132677;23;20076;-86
2022/01/02 09:18:35;;;;;;;10.43;4.90;;;;;;;11.09;100.00;100610.56;6181247;23;20017;-86
2022/01/02 09:21:00;;;;;;;8.38;4.50;;;;;;;11.11;100.00;100603.19;6183342;23;20012;-87
2022/01/02 09:23:25;;;;;;;9.48;5.00;;;;;;;11.12;100.00;100611.03;6132524;23;20055;-87
2022/01/02 09:25:52;;;;;;;13.07;6.03;;;;;;;11.11;100.00;100585.22;6206632;23;20027;-87
2022/01/02 09:28:17;;;;;;;12.05;5.28;;;;;;;11.07;100.00;100547.09;6129484;23;20020;-87
2022/01/02 09:30:42;;;;;;;11.25;4.93;;;;;;;11.04;100.00;100528.66;6206556;23;20447;-87
2022/01/02 09:33:08;;;;;;;11.15;5.30;;;;;;;11.03;100.00;100561.06;6155763;23;20016;-86
2022/01/02 09:35:41;;;;;;;11.07;5.80;;;;;;;11.02;100.00;100579.03;6179065;23;20023;-87
2022/01/02 09:38:08;;;;;;;12.48;6.28;;;;;;;11.01;100.00;100582.72;6181012;23;20054;-88
2022/01/02 09:40:34;;;;;;;8.95;5.72;;;;;;;10.99;100.00;100576.69;6179323;23;20016;-87
2022/01/02 09:43:00;;;;;;;10.80;5.13;;;;;;;11.00;100.00;100580.22;6156560;23;20067;-87
2022/01/02 09:45:26;;;;;;;11.98;5.45;;;;;;;11.03;100.00;100591.44;6154184;23;20013;-87
2022/01/02 09:47:52;;;;;;;13.68;6.05;;;;;;;11.06;100.00;100574.97;6180259;23;20047;-87
2022/01/02 09:50:18;;;;;;;11.38;6.00;;;;;;;11.08;100.00;100585.56;6205971;23;20104;-87
2022/01/02 09:52:45;;;;;;;14.13;5.88;;;;;;;11.11;100.00;100569.09;6206943;23;20019;-87
2022/01/02 09:55:12;;;;;;;11.45;5.20;;;;;;;11.16;100.00;100568.56;6206008;23;20040;-87
2022/01/02 09:57:43;;;;;;;8.10;4.88;;;;;;;11.21;100.00;100561.66;6204980;23;20343;-87
2022/01/02 10:00:09;;;;;;;10.50;5.32;;;;;;;11.25;100.00;100560.31;6155450;23;20099;-87
2022/01/02 10:02:54;;;;;;;11.48;4.57;;;;;;;11.29;100.00;100568.84;6205181;23;20040;-88
2022/01/02 10:05:21;;;;;;;8.75;4.68;;;;;;;11.31;100.00;100558.78;6159994;23;20339;-86
2022/01/02 10:07:47;;;;;;;7.93;4.15;;;;;;;11.36;100.00;100520.63;6209900;23;20043;-87
2022/01/02 10:10:13;;;;;;;8.55;4.32;;;;;;;11.36;100.00;100556.38;6207834;23;20447;-87
2022/01/02 10:12:39;;;;;;;8.98;4.07;;;;;;;11.37;100.00;100568.00;6185076;23;20019;-86
2022/01/02 10:15:13;;;;;;;8.57;4.50;;;;;;;11.39;100.00;100557.88;6183662;23;20238;-86
2022/01/02 10:17:58;;;;;;;8.40;3.88;;;;;;;11.41;100.00;100559.38;6209123;23;20451;-86
2022/01/02 10:20:39;;;;;;;8.55;3.90;;;;;;;11.41;100.00;100570.13;6183543;23;20023;-86
2022/01/02 10:23:20;;;;;;;7.85;4.20;;;;;;;11.42;100.00;100568.28;6183114;23;20358;-87
2022/01/02 10:25:55;;;;;;;7.00;3.92;;;;;;;11.46;100.00;100556.19;6109718;23;20020;-88
2022/01/02 10:28:25;;;;;;;7.05;4.15;;;;;;;11.49;100.00;100553.16;6207605;23;20354;-86
2022/01/02 10:30:53;;;;;;;7.93;4.25;;;;;;;11.53;100.00;100557.97;6184341;23;20029;-88
2022/01/02 10:33:18;;;;;;;11.32;3.75;;;;;;;11.63;100.00;100549.72;6183140;23;20020;-86
2022/01/02 10:35:44;;;;;;;6.63;3.55;;;;;;;11.64;100.00;100545.16;6185239;23;20020;-88
2022/01/02 10:38:17;;;;;;;8.00;3.92;;;;;;;11.68;100.00;100547.34;6184206;23;20444;-86
2022/01/02 10:40:43;;;;;;;6.45;3.45;;;;;;;11.75;100.00;100550.16;6183059;23;20028;-87
2022/01/02 10:43:21;;;;;;;8.52;4.15;;;;;;;11.79;100.00;100556.81;6209104;23;20375;-86
2022/01/02 10:45:50;;;;;;;7.07;3.63;;;;;;;11.78;100.00;100557.84;6158100;23;20035;-87
2022/01/02 10:48:21;;;;;;;7.78;3.80;;;;;;;11.78;100.00;100562.41;6209648;23;20013;-86
2022/01/02 10:51:07;;;;;;;7.22;4.18;;;;;;;11.77;100.00;100561.56;6182334;23;20013;-86
2022/01/02 10:53:36;;;;;;;9.40;3.80;;;;;;;11.82;100.00;100569.91;6209651;23;20019;-86
2022/01/02 10:56:04;;;;;;;7.32;4.05;;;;;;;11.88;100.00;100560.31;6195346;23;20387;-86
2022/01/02 10:58:30;;;;;;;10.38;4.45;;;;;;;11.93;100.00;100564.16;6183513;23;20017;-87
2022/01/02 11:01:04;;;;;;;6.43;3.20;;;;;;;11.90;100.00;100556.44;6210145;23;20475;-86
2022/01/02 11:03:31;;;;;;;8.80;3.70;;;;;;;11.88;100.00;100561.19;6209945;23;20024;-87
2022/01/02 11:06:04;;;;;;;6.50;3.72;;;;;;;11.87;100.00;100564.88;6159563;23;20020;-87
2022/01/02 11:08:33;;;;;;;7.20;4.00;;;;;;;11.88;100.00;100571.94;6208268;23;20102;-87
2022/01/02 11:10:59;;;;;;;10.00;4.97;;;;;;;11.89;100.00;100562.03;6183401;23;20455;-86
2022/01/02 11:13:25;;;;;;;6.60;3.83;;;;;;;11.87;100.00;100556.81;6183313;23;20016;-86
2022/01/02 11:15:52;;;;;;;7.30;3.97;;;;;;;11.88;100.00;100539.69;6156747;23;20020;-86
2022/01/02 11:18:18;;;;;;;8.60;4.10;;;;;;;11.88;100.00;100539.69;6205016;23;20024;-85
2022/01/02 11:20:44;;;;;;;7.43;3.70;;;;;;;11.88;100.00;100518.16;6205031;23;20094;-88